Time;durP1;ratioP1;P1;durP2;ratioP2;P2;SDS_P1;SDS_P2;PMS_P1;PMS_P2;Temp;Humidity;BMP_temperature;BMP_pressure;BME280_temperature;BME280_humidity;BME280_pressure;Samples;Min_cycle;Max_cycle;Signal;HPM_P1;HPM_P2
2022/01/11 00:00:10;;;;;;;;;21.25;14.00;;;;;5.88;65.71;102459.25;5061186;28;46267;-49
2022/01/11 00:02:40;;;;;;;;;24.25;21.75;;;;;5.91;65.46;102468.91;5061321;28;45222;-46
2022/01/11 00:05:06;;;;;;;;;29.00;23.50;;;;;5.91;65.62;102455.84;5061408;28;45404;-45
2022/01/11 00:07:33;;;;;;;;;25.50;22.25;;;;;5.89;65.53;102449.69;5061094;28;45381;-45
2022/01/11 00:10:00;;;;;;;;;22.50;20.50;;;;;5.90;65.68;102454.06;5060228;28;46023;-44
2022/01/11 00:12:26;;;;;;;;;23.75;19.50;;;;;5.91;65.73;102451.53;5061114;28;45314;-44
2022/01/11 00:14:51;;;;;;;;;27.75;21.75;;;;;5.92;65.61;102452.41;5050890;28;45423;-48
2022/01/11 00:17:16;;;;;;;;;26.25;23.50;;;;;5.94;65.68;102450.75;5041032;28;45451;-45
2022/01/11 00:19:43;;;;;;;;;29.75;26.50;;;;;5.94;65.63;102453.38;5040956;28;46277;-44
2022/01/11 00:22:16;;;;;;;;;24.50;17.75;;;;;5.86;65.74;102440.94;5040991;28;45333;-46
2022/01/11 00:24:41;;;;;;;;;30.50;24.75;;;;;5.95;65.16;102453.41;5040969;28;45396;-48
2022/01/11 00:27:09;;;;;;;;;29.00;24.50;;;;;5.95;65.50;102453.41;5040825;28;45230;-46
2022/01/11 00:29:39;;;;;;;;;26.75;24.25;;;;;5.93;65.61;102444.63;5052036;28;46789;-45
2022/01/11 00:32:10;;;;;;;;;30.50;27.50;;;;;5.92;65.72;102445.47;5060815;28;45234;-45
2022/01/11 00:34:49;;;;;;;;;29.25;25.25;;;;;5.94;65.71;102461.19;5061039;28;45411;-46
2022/01/11 00:37:17;;;;;;;;;26.25;21.75;;;;;5.92;65.77;102462.84;5060910;28;45311;-45
2022/01/11 00:39:45;;;;;;;;;29.75;23.75;;;;;5.91;65.71;102461.06;5060569;28;45395;-45
2022/01/11 00:42:12;;;;;;;;;25.00;18.00;;;;;5.91;65.67;102456.75;5060897;28;45266;-46
2022/01/11 00:44:37;;;;;;;;;19.75;19.50;;;;;5.89;65.72;102452.28;5060643;28;45259;-45
2022/01/11 00:47:03;;;;;;;;;23.75;19.25;;;;;5.86;65.69;102460.91;5043000;28;45258;-45
2022/01/11 00:49:28;;;;;;;;;33.00;28.00;;;;;5.89;65.66;102458.44;5060461;28;45942;-46
2022/01/11 00:51:54;;;;;;;;;31.00;26.25;;;;;5.88;65.73;102461.88;5042644;28;45207;-50
2022/01/11 00:54:19;;;;;;;;;33.50;26.50;;;;;5.88;65.56;102467.09;5060571;28;45459;-48
2022/01/11 00:56:45;;;;;;;;;31.50;27.25;;;;;5.83;65.98;102459.09;5042640;28;45828;-45
2022/01/11 00:59:10;;;;;;;;;22.00;13.00;;;;;5.83;66.20;102453.88;5060203;28;46267;-45
2022/01/11 01:01:37;;;;;;;;;30.50;28.75;;;;;5.80;65.98;102455.53;5060793;28;45302;-49
2022/01/11 01:04:05;;;;;;;;;29.75;25.25;;;;;5.81;65.96;102458.19;5060549;28;45356;-49
2022/01/11 01:06:31;;;;;;;;;32.75;25.75;;;;;5.79;65.79;102456.34;5060276;28;45397;-46
2022/01/11 01:08:56;;;;;;;;;35.75;32.25;;;;;5.78;65.93;102458.06;5060185;28;45361;-46
2022/01/11 01:11:21;;;;;;;;;36.50;29.25;;;;;5.76;65.87;102467.56;5060609;28;45325;-46
2022/01/11 01:13:47;;;;;;;;;29.75;27.50;;;;;5.76;65.74;102467.56;5058189;28;45773;-45
2022/01/11 01:16:13;;;;;;;;;33.75;26.00;;;;;5.74;66.02;102474.44;5040031;28;45401;-44
2022/01/11 01:18:39;;;;;;;;;31.50;27.50;;;;;5.73;65.79;102470.06;5040052;28;45174;-47
2022/01/11 01:21:05;;;;;;;;;37.50;29.00;;;;;5.70;65.88;102472.59;5022210;28;45309;-45
2022/01/11 01:23:30;;;;;;;;;25.75;25.25;;;;;5.69;65.88;102470.81;5022287;28;45462;-45
2022/01/11 01:25:56;;;;;;;;;32.00;28.25;;;;;5.68;65.74;102475.13;5040048;28;45783;-46
2022/01/11 01:28:22;;;;;;;;;39.25;27.25;;;;;5.68;65.78;102484.69;5041169;28;45439;-47
2022/01/11 01:30:49;;;;;;;;;34.25;27.50;;;;;5.68;65.79;102469.91;5059847;28;45429;-49
2022/01/11 01:33:15;;;;;;;;;26.50;23.50;;;;;5.64;65.88;102478.47;5060193;28;45355;-47
2022/01/11 01:35:43;;;;;;;;;31.00;25.75;;;;;5.66;65.55;102475.91;5059960;28;45324;-49
2022/01/11 01:38:10;;;;;;;;;27.75;22.00;;;;;5.63;65.74;102474.06;5059963;28;46147;-46
2022/01/11 01:40:42;;;;;;;;;28.75;25.25;;;;;5.61;65.88;102483.59;5059714;28;45165;-45
2022/01/11 01:43:09;;;;;;;;;29.50;24.25;;;;;5.60;65.99;102480.94;5059993;28;45273;-45
2022/01/11 01:45:36;;;;;;;;;30.00;26.50;;;;;5.60;65.66;102480.94;5059676;28;45192;-47
2022/01/11 01:48:03;;;;;;;;;31.00;23.25;;;;;5.61;65.66;102495.72;5059944;28;45340;-49
2022/01/11 01:50:29;;;;;;;;;31.75;28.75;;;;;5.61;65.88;102495.72;5059757;28;45310;-46
2022/01/11 01:52:57;;;;;;;;;31.50;23.25;;;;;5.57;65.87;102493.84;5059914;28;45378;-45
2022/01/11 01:55:23;;;;;;;;;26.75;26.50;;;;;5.54;65.80;102497.25;5059607;28;45590;-46
2022/01/11 01:57:50;;;;;;;;;29.50;22.25;;;;;5.52;66.02;102506.72;5059589;28;46574;-47
2022/01/11 02:00:17;;;;;;;;;31.75;26.25;;;;;5.51;65.69;102508.47;5059670;28;45332;-46
2022/01/11 02:02:43;;;;;;;;;21.50;19.50;;;;;5.51;65.73;102508.47;5059616;28;45343;-46
2022/01/11 02:05:08;;;;;;;;;23.25;19.00;;;;;5.46;65.87;102507.41;5059748;28;45241;-45
2022/01/11 02:07:34;;;;;;;;;19.50;17.75;;;;;5.46;65.84;102504.81;5059266;28;46842;-46
2022/01/11 02:10:02;;;;;;;;;25.00;21.75;;;;;5.46;65.56;102498.69;5059727;28;45446;-44
2022/01/11 02:12:28;;;;;;;;;21.25;19.75;;;;;5.43;65.56;102509.91;5059744;28;45423;-46
2022/01/11 02:14:54;;;;;;;;;22.50;20.50;;;;;5.44;65.80;102511.69;5048768;28;45227;-45
2022/01/11 02:17:19;;;;;;;;;20.25;18.75;;;;;5.42;65.75;102508.16;5039279;28;46181;-45
2022/01/11 02:19:45;;;;;;;;;20.00;18.75;;;;;5.42;65.63;102518.59;5039296;28;45234;-46
2022/01/11 02:22:10;;;;;;;;;29.50;22.25;;;;;5.41;65.79;102511.59;5039408;28;45223;-44
2022/01/11 02:24:36;;;;;;;;;21.50;19.75;;;;;5.39;65.69;102521.06;5039444;28;45224;-45
2022/01/11 02:27:01;;;;;;;;;25.25;21.50;;;;;5.41;65.63;102515.91;5039039;28;46309;-47
2022/01/11 02:29:29;;;;;;;;;33.75;23.50;;;;;5.41;65.59;102523.72;5049641;28;45239;-44
2022/01/11 02:31:55;;;;;;;;;21.00;17.50;;;;;5.42;65.37;102528.09;5060332;28;45258;-45
2022/01/11 02:34:20;;;;;;;;;24.00;19.50;;;;;5.39;65.72;102514.97;5062919;28;45325;-46
2022/01/11 02:36:46;;;;;;;;;22.00;18.50;;;;;5.42;65.58;102513.38;5062697;28;46302;-45
2022/01/11 02:39:12;;;;;;;;;22.50;17.50;;;;;5.42;65.33;102521.19;5062789;28;45378;-45
2022/01/11 02:41:48;;;;;;;;;26.25;21.25;;;;;5.40;65.70;102515.03;5062680;28;45248;-46
2022/01/11 02:44:14;;;;;;;;;23.75;22.00;;;;;5.38;65.82;102516.69;5062707;28;45174;-49
2022/01/11 02:46:40;;;;;;;;;23.25;18.50;;;;;5.40;65.85;102516.75;5062603;28;45397;-48
2022/01/11 02:49:05;;;;;;;;;18.00;15.25;;;;;5.37;65.71;102520.09;5062707;28;45244;-46
2022/01/11 02:51:31;;;;;;;;;20.50;17.75;;;;;5.36;65.72;102513.16;5062697;28;45213;-45
2022/01/11 02:53:57;;;;;;;;;21.50;18.75;;;;;5.36;65.69;102518.38;5062445;28;45547;-45
2022/01/11 02:56:23;;;;;;;;;28.75;22.50;;;;;5.38;65.61;102519.28;5062335;28;45393;-47
2022/01/11 02:58:50;;;;;;;;;20.25;18.25;;;;;5.40;65.46;102508.94;5062578;28;45359;-45
2022/01/11 03:01:16;;;;;;;;;23.25;19.50;;;;;5.39;65.67;102515.84;5044341;28;45362;-45
2022/01/11 03:03:41;;;;;;;;;28.75;25.00;;;;;5.35;65.62;102511.38;5062402;28;45413;-47
2022/01/11 03:06:07;;;;;;;;;24.25;21.00;;;;;5.31;65.88;102507.75;5062118;28;46349;-44
2022/01/11 03:08:46;;;;;;;;;24.50;17.50;;;;;5.35;65.85;102529.63;5062575;28;45261;-44
2022/01/11 03:11:15;;;;;;;;;24.50;19.50;;;;;5.32;65.71;102519.97;5062375;28;45463;-46
2022/01/11 03:13:43;;;;;;;;;25.50;22.00;;;;;5.31;65.60;102517.31;5043826;28;45452;-45
2022/01/11 03:16:09;;;;;;;;;32.00;21.00;;;;;5.27;65.74;102524.13;5041738;28;46183;-46
2022/01/11 03:18:35;;;;;;;;;22.75;19.50;;;;;5.25;65.77;102535.34;5041909;28;45242;-46
2022/01/11 03:21:00;;;;;;;;;23.50;20.50;;;;;5.26;65.59;102543.22;5042221;28;45626;-45
2022/01/11 03:23:25;;;;;;;;;24.25;17.00;;;;;5.24;65.82;102546.59;5042013;28;45263;-45
2022/01/11 03:25:52;;;;;;;;;22.25;21.75;;;;;5.23;65.95;102547.41;5041816;28;46087;-47
2022/01/11 03:28:18;;;;;;;;;27.50;20.00;;;;;5.23;65.73;102537.00;5008358;28;45817;-45
2022/01/11 03:30:44;;;;;;;;;19.75;18.50;;;;;5.26;65.65;102544.91;5061826;28;45443;-45
2022/01/11 03:33:11;;;;;;;;;25.00;20.50;;;;;5.26;65.60;102534.47;5061857;28;45380;-44
2022/01/11 03:35:38;;;;;;;;;23.50;19.25;;;;;5.27;65.84;102533.66;5061869;28;45328;-45
2022/01/11 03:38:05;;;;;;;;;26.50;19.75;;;;;5.23;65.68;102522.22;5061701;28;45390;-44
2022/01/11 03:40:31;;;;;;;;;23.50;18.50;;;;;5.21;65.49;102535.22;5061726;28;45267;-48
2022/01/11 03:42:58;;;;;;;;;25.50;21.25;;;;;5.23;65.60;102547.41;5060863;28;45475;-49
2022/01/11 03:45:24;;;;;;;;;24.50;17.75;;;;;5.22;65.75;102546.53;5061416;28;46419;-48
2022/01/11 03:47:52;;;;;;;;;24.00;19.50;;;;;5.19;65.73;102551.63;5061527;28;45257;-49
2022/01/11 03:50:18;;;;;;;;;30.75;19.75;;;;;5.20;65.66;102554.28;5061711;28;45245;-48
2022/01/11 03:52:44;;;;;;;;;32.50;23.25;;;;;5.23;65.68;102563.06;5061628;28;45509;-49
2022/01/11 03:55:14;;;;;;;;;26.25;20.50;;;;;5.23;65.51;102573.47;5061518;28;45268;-49
2022/01/11 03:57:40;;;;;;;;;24.50;22.50;;;;;5.24;65.66;102562.22;5061492;28;45422;-50
2022/01/11 04:00:12;;;;;;;;;28.75;20.00;;;;;5.25;65.58;102564.88;5061634;28;45339;-44
2022/01/11 04:02:38;;;;;;;;;22.25;17.75;;;;;5.23;65.51;102565.66;5061301;28;45447;-45
2022/01/11 04:05:04;;;;;;;;;28.25;23.50;;;;;5.24;65.63;102570.06;5061622;28;45392;-46
2022/01/11 04:07:30;;;;;;;;;24.25;21.50;;;;;5.23;65.82;102573.47;5043209;28;45309;-45
2022/01/11 04:09:56;;;;;;;;;23.75;20.50;;;;;5.21;65.97;102553.44;5061420;28;45522;-49
2022/01/11 04:12:23;;;;;;;;;19.50;19.50;;;;;5.20;65.61;102554.28;5061310;28;45490;-46
2022/01/11 04:14:49;;;;;;;;;23.75;19.50;;;;;5.17;65.56;102559.41;5051329;28;46380;-45
2022/01/11 04:17:15;;;;;;;;;22.75;21.50;;;;;5.17;65.71;102551.56;5041039;28;45283;-48
2022/01/11 04:19:41;;;;;;;;;24.25;22.00;;;;;5.15;65.66;102553.22;5041219;28;45206;-47
2022/01/11 04:22:06;;;;;;;;;25.00;23.00;;;;;5.18;65.66;102555.97;5041064;28;45236;-44
2022/01/11 04:24:32;;;;;;;;;29.75;22.00;;;;;5.19;65.73;102557.75;5040998;28;46120;-48
2022/01/11 04:26:57;;;;;;;;;31.75;25.25;;;;;5.19;65.67;102560.34;5040793;28;45522;-47
2022/01/11 04:29:23;;;;;;;;;19.50;18.25;;;;;5.20;65.58;102559.50;5032857;28;45348;-44
2022/01/11 04:31:48;;;;;;;;;29.00;24.00;;;;;5.20;65.97;102571.66;5060876;28;45637;-47
2022/01/11 04:34:14;;;;;;;;;28.50;24.50;;;;;5.17;65.45;102559.41;5060830;28;46251;-49
2022/01/11 04:36:39;;;;;;;;;22.75;21.00;;;;;5.15;65.63;102549.75;5060794;28;45366;-46
2022/01/11 04:39:08;;;;;;;;;24.75;22.50;;;;;5.17;65.58;102554.19;5061058;28;45318;-49
2022/01/11 04:41:33;;;;;;;;;27.75;24.50;;;;;5.15;65.33;102549.75;5042625;28;45562;-45
2022/01/11 04:43:59;;;;;;;;;28.25;21.25;;;;;5.12;65.50;102557.44;5060543;28;45463;-44
2022/01/11 04:46:26;;;;;;;;;31.75;24.75;;;;;5.11;65.58;102553.94;5060691;28;45175;-44
2022/01/11 04:48:52;;;;;;;;;30.50;24.25;;;;;5.12;65.75;102560.03;5061126;28;45226;-45
2022/01/11 04:51:17;;;;;;;;;32.00;24.25;;;;;5.11;65.33;102561.78;5060575;28;45374;-46
2022/01/11 04:53:43;;;;;;;;;31.25;23.75;;;;;5.12;65.49;102571.38;5060625;28;46009;-46
2022/01/11 04:56:08;;;;;;;;;29.00;22.50;;;;;5.10;65.57;102565.19;5060046;28;45310;-47
2022/01/11 04:58:34;;;;;;;;;28.50;22.25;;;;;5.09;65.33;102571.25;5060749;28;45254;-45
2022/01/11 05:01:00;;;;;;;;;29.50;27.25;;;;;5.07;65.34;102575.53;5060230;28;45494;-46
2022/01/11 05:03:25;;;;;;;;;28.75;22.00;;;;;5.05;65.65;102585.00;5060554;28;46248;-44
2022/01/11 05:05:51;;;;;;;;;27.75;23.50;;;;;4.98;65.44;102580.38;5060177;28;45477;-46
2022/01/11 05:08:16;;;;;;;;;31.00;26.50;;;;;4.99;65.58;102590.88;5042702;28;45348;-45
2022/01/11 05:10:42;;;;;;;;;26.25;20.00;;;;;4.95;65.65;102585.47;5060245;28;45240;-47
2022/01/11 05:13:15;;;;;;;;;27.75;24.75;;;;;4.91;65.53;102581.84;5060228;28;46472;-45
2022/01/11 05:15:41;;;;;;;;;29.75;24.25;;;;;4.87;65.70;102583.44;5038550;28;45768;-46
2022/01/11 05:18:07;;;;;;;;;31.00;21.25;;;;;4.91;65.40;102587.06;5040407;28;45321;-47
2022/01/11 05:20:34;;;;;;;;;27.50;25.00;;;;;4.88;65.25;102587.84;5040014;28;45540;-48
2022/01/11 05:23:00;;;;;;;;;32.50;24.50;;;;;4.86;65.18;102584.28;5040114;28;46040;-45
2022/01/11 05:25:25;;;;;;;;;28.50;26.75;;;;;4.83;65.44;102591.09;5039737;28;45453;-44
2022/01/11 05:27:51;;;;;;;;;37.00;32.25;;;;;4.80;65.36;102591.84;5040417;28;45219;-45
2022/01/11 05:30:17;;;;;;;;;34.75;26.25;;;;;4.78;65.38;102583.09;5040230;28;45266;-45
2022/01/11 05:32:42;;;;;;;;;33.00;24.00;;;;;4.77;65.36;102583.03;5038892;28;48343;-44
2022/01/11 05:35:10;;;;;;;;;25.50;21.75;;;;;4.75;65.28;102590.78;5039669;28;45392;-45
2022/01/11 05:37:36;;;;;;;;;33.00;27.25;;;;;4.75;65.30;102580.38;5040043;28;45448;-45
2022/01/11 05:40:06;;;;;;;;;29.75;26.75;;;;;4.75;65.45;102587.31;5039489;28;45336;-46
2022/01/11 05:42:32;;;;;;;;;35.50;29.00;;;;;4.75;64.99;102605.53;5039762;28;45475;-46
2022/01/11 05:44:57;;;;;;;;;33.25;24.50;;;;;4.67;65.34;102602.63;5039462;28;45343;-46
2022/01/11 05:47:23;;;;;;;;;31.00;26.00;;;;;4.66;65.11;102612.13;5039995;28;45277;-45
2022/01/11 05:49:50;;;;;;;;;33.00;26.25;;;;;4.67;65.22;102610.44;5039513;28;45402;-46
2022/01/11 05:52:15;;;;;;;;;29.50;25.00;;;;;4.64;65.40;102612.91;5039659;28;45368;-45
2022/01/11 05:54:41;;;;;;;;;33.75;25.00;;;;;4.54;65.15;102602.13;5039369;28;45447;-44
2022/01/11 05:57:06;;;;;;;;;25.50;23.75;;;;;4.55;65.26;102614.34;5039883;28;45998;-44
2022/01/11 05:59:31;;;;;;;;;32.75;25.75;;;;;4.51;65.56;102622.81;5021282;28;45729;-48
2022/01/11 06:01:57;;;;;;;;;30.00;24.00;;;;;4.50;65.38;102613.25;5039781;28;46292;-45
2022/01/11 06:04:24;;;;;;;;;41.25;28.50;;;;;4.48;65.23;102614.91;5039656;28;45274;-44
2022/01/11 06:06:49;;;;;;;;;34.00;28.00;;;;;4.44;65.44;102615.63;5040474;28;45257;-44
2022/01/11 06:09:15;;;;;;;;;32.75;25.00;;;;;4.45;65.32;102612.16;5042892;28;45245;-44
2022/01/11 06:11:40;;;;;;;;;32.75;30.00;;;;;4.44;64.85;102610.41;5043014;28;45345;-48
2022/01/11 06:14:05;;;;;;;;;36.33;31.67;;;;;4.47;65.36;102631.34;5050109;28;45547;-45
2022/01/11 06:16:31;;;;;;;;;43.00;34.50;;;;;4.49;65.28;102645.31;5043290;28;45222;-44
2022/01/11 06:18:56;;;;;;;;;40.50;35.25;;;;;4.51;65.12;102642.78;5042905;28;45344;-44
2022/01/11 06:21:21;;;;;;;;;37.50;32.75;;;;;4.52;65.18;102636.75;5042833;28;46280;-44
2022/01/11 06:23:47;;;;;;;;;40.25;33.75;;;;;4.54;65.09;102643.81;5042729;28;45410;-45
2022/01/11 06:26:16;;;;;;;;;37.50;32.50;;;;;4.57;64.74;102632.63;5025137;28;45411;-45
2022/01/11 06:28:42;;;;;;;;;45.00;35.50;;;;;4.59;64.96;102635.28;5028828;28;45603;-43
2022/01/11 06:31:08;;;;;;;;;36.25;29.25;;;;;4.61;65.01;102646.66;5062705;28;45416;-44
2022/01/11 06:33:34;;;;;;;;;37.00;32.50;;;;;4.61;65.10;102646.66;5062663;28;45210;-46
2022/01/11 06:35:59;;;;;;;;;39.00;29.00;;;;;4.60;64.79;102652.69;5059254;28;45689;-48
2022/01/11 06:38:25;;;;;;;;;28.75;28.25;;;;;4.58;65.04;102638.69;5050305;28;45598;-43
2022/01/11 06:40:50;;;;;;;;;32.50;30.00;;;;;4.59;65.23;102656.09;5044293;28;46257;-43
2022/01/11 06:43:16;;;;;;;;;50.75;36.25;;;;;4.52;65.03;102644.56;5050092;28;45316;-44
2022/01/11 06:45:41;;;;;;;;;29.75;28.00;;;;;4.61;65.03;102662.28;5049827;28;45609;-44
2022/01/11 06:48:08;;;;;;;;;39.75;32.50;;;;;4.61;64.96;102662.28;5054534;28;45263;-44
2022/01/11 06:50:34;;;;;;;;;44.75;36.00;;;;;4.63;64.95;102665.81;5048830;28;45367;-45
2022/01/11 06:52:59;;;;;;;;;42.75;34.50;;;;;4.65;65.05;102666.78;5049609;28;45665;-45
2022/01/11 06:55:25;;;;;;;;;44.50;35.75;;;;;4.65;64.82;102677.19;5056598;28;45324;-44
2022/01/11 06:57:50;;;;;;;;;39.25;33.75;;;;;4.66;64.84;102671.16;5027438;28;45379;-46
2022/01/11 07:00:16;;;;;;;;;41.50;36.25;;;;;4.64;65.18;102670.22;5052604;28;46265;-43
2022/01/11 07:02:42;;;;;;;;;36.75;32.00;;;;;4.66;65.09;102664.22;5053766;28;45297;-44
2022/01/11 07:05:08;;;;;;;;;47.00;34.75;;;;;4.66;65.21;102669.44;5048940;28;45486;-48
2022/01/11 07:07:33;;;;;;;;;44.75;35.25;;;;;4.64;65.19;102659.78;5052906;28;45261;-44
2022/01/11 07:09:59;;;;;;;;;52.00;38.25;;;;;4.66;65.04;102669.44;5055144;28;45327;-44
2022/01/11 07:12:25;;;;;;;;;38.50;31.75;;;;;4.67;64.98;102666.00;5060935;28;45248;-45
2022/01/11 07:14:50;;;;;;;;;42.00;35.50;;;;;4.68;65.08;102670.41;5057098;28;45238;-44
2022/01/11 07:17:16;;;;;;;;;40.50;31.75;;;;;4.66;65.05;102668.56;5050690;28;45543;-43
2022/01/11 07:19:42;;;;;;;;;49.50;37.00;;;;;4.66;65.06;102671.16;5042394;28;45783;-43
2022/01/11 07:22:08;;;;;;;;;34.00;31.25;;;;;4.62;65.05;102664.94;5052986;28;45234;-44
2022/01/11 07:24:33;;;;;;;;;37.75;32.50;;;;;4.61;65.25;102675.31;5055394;28;45417;-45
2022/01/11 07:26:59;;;;;;;;;41.25;35.00;;;;;4.59;65.31;102677.84;5050398;28;45235;-46
2022/01/11 07:29:25;;;;;;;;;47.25;35.00;;;;;4.58;65.04;102681.28;5049870;28;45450;-46
2022/01/11 07:31:50;;;;;;;;;38.25;34.00;;;;;4.59;65.10;102689.97;5043100;28;45469;-45
2022/01/11 07:34:16;;;;;;;;;44.50;35.50;;;;;4.61;65.07;102701.34;5051744;28;45291;-48
2022/01/11 07:36:42;;;;;;;;;41.00;35.50;;;;;4.60;65.34;102704.78;5044452;28;45474;-46
2022/01/11 07:39:08;;;;;;;;;34.50;27.25;;;;;4.59;65.04;102697.78;5041917;28;45147;-47
2022/01/11 07:41:34;;;;;;;;;41.00;36.50;;;;;4.54;65.24;102694.97;5052018;28;45300;-50
2022/01/11 07:43:59;;;;;;;;;32.00;27.50;;;;;4.55;64.92;102686.34;5063915;28;45214;-47
2022/01/11 07:46:25;;;;;;;;;43.00;36.75;;;;;4.51;65.25;102684.44;5028482;28;45275;-45
2022/01/11 07:48:51;;;;;;;;;30.75;30.25;;;;;4.50;65.38;102704.41;5032609;28;45964;-50
2022/01/11 07:51:16;;;;;;;;;38.00;31.50;;;;;4.51;65.04;102706.16;5048608;28;45269;-45
2022/01/11 07:53:41;;;;;;;;;34.50;29.25;;;;;4.50;65.14;102720.03;5041847;28;45282;-46
2022/01/11 07:56:07;;;;;;;;;38.25;31.75;;;;;4.51;65.20;102726.97;5047843;28;46400;-45
2022/01/11 07:58:33;;;;;;;;;41.50;33.00;;;;;4.54;65.03;102719.31;5051361;28;45506;-49
2022/01/11 08:00:58;;;;;;;;;38.00;34.25;;;;;4.51;65.12;102720.91;5047695;28;45352;-46
2022/01/11 08:03:24;;;;;;;;;38.00;35.25;;;;;4.51;65.15;102728.72;5033844;28;45329;-44
2022/01/11 08:05:50;;;;;;;;;48.50;36.25;;;;;4.51;64.84;102732.19;5032804;28;45786;-46
2022/01/11 08:08:16;;;;;;;;;44.75;34.50;;;;;4.49;65.14;102730.34;5048551;28;47885;-46
2022/01/11 08:10:42;;;;;;;;;40.75;36.25;;;;;4.49;65.25;102728.66;5032512;28;45488;-48
2022/01/11 08:13:10;;;;;;;;;40.00;33.50;;;;;4.47;65.14;102732.88;5049652;28;45395;-48
2022/01/11 08:15:35;;;;;;;;;41.25;33.25;;;;;4.49;64.90;102741.66;5048147;28;45635;-46
2022/01/11 08:18:01;;;;;;;;;49.00;35.00;;;;;4.48;65.05;102736.41;5050429;28;45499;-47
2022/01/11 08:20:26;;;;;;;;;48.00;38.25;;;;;4.47;65.31;102747.63;5050857;28;45291;-48
2022/01/11 08:22:53;;;;;;;;;47.50;36.50;;;;;4.48;65.19;102752.03;5050052;28;45117;-47
2022/01/11 08:25:19;;;;;;;;;43.25;36.00;;;;;4.49;65.17;102759.00;5047357;28;45570;-47
2022/01/11 08:27:44;;;;;;;;;39.00;36.25;;;;;4.48;64.91;102747.69;5037026;28;46174;-46
2022/01/11 08:30:10;;;;;;;;;45.75;32.00;;;;;4.49;64.84;102759.91;5050208;28;45410;-45
2022/01/11 08:32:36;;;;;;;;;38.25;27.75;;;;;4.49;65.08;102757.28;5029197;28;45717;-50
2022/01/11 08:35:01;;;;;;;;;39.75;32.75;;;;;4.49;64.85;102759.91;5049528;28;45737;-47
2022/01/11 08:37:27;;;;;;;;;42.00;35.75;;;;;4.51;64.93;102757.34;5050694;28;45475;-48
2022/01/11 08:39:53;;;;;;;;;39.00;31.50;;;;;4.50;64.90;102761.69;5046093;28;45442;-45
2022/01/11 08:42:18;;;;;;;;;41.00;34.00;;;;;4.48;65.07;102768.53;5051421;28;45297;-49
2022/01/11 08:44:46;;;;;;;;;45.50;34.00;;;;;4.46;64.92;102762.34;5050372;28;45333;-47
2022/01/11 08:47:12;;;;;;;;;42.50;34.75;;;;;4.47;64.95;102758.94;5038572;28;46136;-51
2022/01/11 08:49:38;;;;;;;;;39.75;33.25;;;;;4.49;64.84;102746.88;5051003;28;45253;-49
2022/01/11 08:52:04;;;;;;;;;46.75;36.00;;;;;4.48;65.17;102749.41;5033036;28;45446;-49
2022/01/11 08:54:29;;;;;;;;;41.00;32.00;;;;;4.49;64.79;102766.78;5043838;28;45308;-50
2022/01/11 08:56:55;;;;;;;;;44.25;38.00;;;;;4.48;65.20;102757.22;5040465;28;46558;-50
2022/01/11 08:59:22;;;;;;;;;42.50;35.25;;;;;4.50;64.96;102766.88;5038710;28;45714;-53
2022/01/11 09:01:49;;;;;;;;;36.00;34.00;;;;;4.50;65.21;102758.16;5039473;28;45295;-51
2022/01/11 09:04:16;;;;;;;;;46.00;36.00;;;;;4.54;64.90;102767.88;5039858;28;45338;-52
2022/01/11 09:06:42;;;;;;;;;39.75;33.75;;;;;4.55;65.13;102777.47;5039489;28;46189;-51
2022/01/11 09:09:07;;;;;;;;;46.75;37.00;;;;;4.55;65.23;102769.66;5040115;28;45319;-52
2022/01/11 09:11:33;;;;;;;;;40.00;36.50;;;;;4.54;65.07;102774.00;5040360;28;45346;-51
2022/01/11 09:13:58;;;;;;;;;43.75;36.75;;;;;4.56;65.23;102774.94;5039810;28;45322;-52
2022/01/11 09:16:24;;;;;;;;;41.00;35.00;;;;;4.59;64.96;102773.28;5040046;28;46239;-53
2022/01/11 09:18:50;;;;;;;;;40.50;36.25;;;;;4.60;64.95;102783.78;5040042;28;45329;-52
2022/01/11 09:21:20;;;;;;;;;44.25;38.25;;;;;4.61;64.84;102782.97;5040299;28;45317;-54
2022/01/11 09:23:46;;;;;;;;;42.25;36.75;;;;;4.52;64.92;102759.13;5039836;28;45249;-49
2022/01/11 09:26:11;;;;;;;;;43.75;34.50;;;;;4.63;65.06;102783.00;5040116;28;46293;-51
2022/01/11 09:28:37;;;;;;;;;39.50;35.50;;;;;4.63;65.06;102789.13;5026531;28;45218;-53
2022/01/11 09:31:02;;;;;;;;;43.50;37.50;;;;;4.63;65.13;102793.44;5056627;28;45399;-52
2022/01/11 09:33:28;;;;;;;;;42.75;37.00;;;;;4.64;64.85;102801.34;5041968;28;45365;-54
2022/01/11 09:35:53;;;;;;;;;45.25;37.75;;;;;4.66;64.96;102802.28;5059957;28;45353;-51
2022/01/11 09:38:18;;;;;;;;;41.25;30.25;;;;;4.67;64.89;102796.25;5042063;28;45323;-50
2022/01/11 09:40:44;;;;;;;;;39.50;34.00;;;;;4.68;65.13;102808.44;5060062;28;46055;-52
2022/01/11 09:43:11;;;;;;;;;52.25;39.50;;;;;4.69;64.84;102806.72;5060076;28;45293;-53
2022/01/11 09:45:37;;;;;;;;;37.00;32.75;;;;;4.71;65.06;102815.50;5059731;28;46086;-51
2022/01/11 09:48:03;;;;;;;;;41.00;35.00;;;;;4.73;65.26;102811.25;5042002;28;45598;-51
2022/01/11 09:50:29;;;;;;;;;48.50;36.50;;;;;4.73;64.97;102816.47;5025907;28;45448;-51
2022/01/11 09:52:56;;;;;;;;;48.00;34.25;;;;;4.75;64.99;102819.13;5039805;28;45249;-48
2022/01/11 09:55:22;;;;;;;;;44.00;36.25;;;;;4.77;64.98;102817.47;5039356;28;46133;-49
2022/01/11 09:57:47;;;;;;;;;50.25;37.25;;;;;4.77;65.01;102812.25;5039912;28;45239;-50
2022/01/11 10:00:13;;;;;;;;;49.50;36.00;;;;;4.81;65.13;102814.19;5039526;28;45163;-50
2022/01/11 10:02:38;;;;;;;;;41.00;33.00;;;;;4.79;65.14;102821.94;5039686;28;45278;-52
2022/01/11 10:05:07;;;;;;;;;50.75;37.00;;;;;4.83;64.98;102825.56;5039409;28;46960;-49
2022/01/11 10:07:37;;;;;;;;;47.25;38.25;;;;;4.84;65.25;102822.13;5039336;28;45269;-50
2022/01/11 10:10:03;;;;;;;;;49.50;37.75;;;;;4.85;65.04;102824.78;5039550;28;45549;-50
2022/01/11 10:12:40;;;;;;;;;54.25;36.25;;;;;4.84;65.15;102823.03;5039530;28;45305;-52
2022/01/11 10:15:06;;;;;;;;;42.00;36.75;;;;;4.86;65.04;102828.31;5021155;28;47107;-49
2022/01/11 10:17:39;;;;;;;;;44.00;35.00;;;;;4.88;65.11;102819.72;5039378;28;45349;-48
2022/01/11 10:20:08;;;;;;;;;49.00;37.00;;;;;4.89;65.14;102823.22;5021393;28;45475;-50
2022/01/11 10:22:43;;;;;;;;;42.25;35.00;;;;;4.89;65.35;102828.41;5039249;28;45456;-52
2022/01/11 10:25:09;;;;;;;;;48.75;35.75;;;;;4.87;64.92;102825.75;5039318;28;45546;-50
2022/01/11 10:27:36;;;;;;;;;55.75;39.00;;;;;4.88;65.05;102830.16;5021131;28;45266;-52
2022/01/11 10:30:04;;;;;;;;;53.00;39.00;;;;;4.93;65.04;102826.84;5047139;28;45568;-51
2022/01/11 10:32:36;;;;;;;;;47.75;37.25;;;;;4.95;65.11;102820.88;5059270;28;45265;-48
2022/01/11 10:35:06;;;;;;;;;41.25;34.00;;;;;4.99;65.20;102824.50;5041378;28;47079;-52
2022/01/11 10:37:33;;;;;;;;;48.25;40.00;;;;;4.98;65.22;102831.44;5059093;28;45404;-53
2022/01/11 10:40:10;;;;;;;;;42.50;35.00;;;;;5.04;65.24;102843.81;5059197;28;45364;-51
2022/01/11 10:42:39;;;;;;;;;40.75;37.00;;;;;5.01;65.21;102844.59;5059110;28;45495;-50
2022/01/11 10:45:11;;;;;;;;;50.75;36.00;;;;;5.03;65.22;102842.94;5058858;28;46999;-50
2022/01/11 10:47:40;;;;;;;;;42.50;35.25;;;;;5.03;65.48;102844.63;5041018;28;45463;-52
2022/01/11 10:50:10;;;;;;;;;44.00;35.50;;;;;5.02;65.41;102840.28;5045428;28;45329;-51
2022/01/11 10:52:36;;;;;;;;;47.75;35.50;;;;;5.03;65.17;102840.34;5039838;28;45221;-52
2022/01/11 10:55:07;;;;;;;;;48.75;38.50;;;;;5.06;65.10;102842.19;5041916;28;46446;-49
2022/01/11 10:57:37;;;;;;;;;49.00;37.75;;;;;5.08;65.21;102834.41;5042196;28;45359;-50
2022/01/11 11:00:15;;;;;;;;;49.25;39.25;;;;;5.12;65.27;102836.31;5024158;28;45365;-51
2022/01/11 11:02:41;;;;;;;;;44.00;37.50;;;;;5.14;65.44;102825.13;5042206;28;45328;-53
2022/01/11 11:05:15;;;;;;;;;54.25;40.50;;;;;5.17;65.30;102834.78;5042120;28;45600;-49
2022/01/11 11:07:42;;;;;;;;;44.50;34.75;;;;;5.16;65.41;102833.91;5042184;28;46349;-51
2022/01/11 11:10:08;;;;;;;;;36.00;31.25;;;;;5.18;65.29;102837.50;5049056;28;45554;-48
2022/01/11 11:12:34;;;;;;;;;52.50;39.00;;;;;5.23;65.28;102834.16;5047561;28;45673;-50